Time;durP1;ratioP1;P1;durP2;ratioP2;P2;SDS_P1;SDS_P2;PMS_P1;PMS_P2;Temp;Humidity;BMP_temperature;BMP_pressure;BME280_temperature;BME280_humidity;BME280_pressure;Samples;Min_cycle;Max_cycle;Signal;HPM_P1;HPM_P2
2022/04/14 00:02:20;;;;;;;16.97;14.70;;;11.60;99.90;;;12.42;91.86;-20149.63;5033070;28;20643;-63
2022/04/14 00:04:48;;;;;;;19.03;15.13;;;11.60;99.90;;;12.44;91.79;-20150.28;5032196;28;20240;-62
2022/04/14 00:07:16;;;;;;;16.93;15.00;;;11.60;99.90;;;12.47;91.63;-20151.31;5032298;28;20320;-61
2022/04/14 00:09:45;;;;;;;17.43;14.40;;;11.70;99.90;;;12.49;91.29;-20151.84;5032195;28;20317;-61
2022/04/14 00:12:12;;;;;;;17.00;14.07;;;11.70;99.90;;;12.54;91.50;-20153.53;5017769;28;20252;-62
2022/04/14 00:14:42;;;;;;;14.70;12.70;;;11.70;99.90;;;12.54;91.76;-20153.53;5012705;28;20187;-62
2022/04/14 00:17:12;;;;;;;15.20;12.40;;;11.70;99.90;;;12.58;91.87;-20155.06;5013146;28;20191;-62
2022/04/14 00:19:40;;;;;;;15.50;12.37;;;11.70;99.90;;;12.55;91.22;-20153.88;5012302;28;20666;-63
2022/04/14 00:22:09;;;;;;;17.53;12.87;;;11.70;99.90;;;12.51;91.45;-20152.50;5012251;28;20665;-63
2022/04/14 00:24:36;;;;;;;13.90;11.97;;;11.70;99.90;;;12.43;91.57;-20149.94;5012222;28;20305;-62
2022/04/14 00:27:05;;;;;;;14.93;11.90;;;11.70;99.90;;;12.39;91.35;-20148.41;5012290;28;20249;-63
2022/04/14 00:29:33;;;;;;;15.67;12.03;;;11.70;99.90;;;12.42;90.58;-20149.63;5012791;28;20305;-64
2022/04/14 00:32:03;;;;;;;14.97;12.37;;;11.60;99.90;;;12.43;90.50;-20149.78;5023409;28;20686;-62
2022/04/14 00:34:31;;;;;;;14.40;11.53;;;11.60;99.90;;;12.28;91.40;-20145.00;5031954;28;20764;-62
2022/04/14 00:36:58;;;;;;;15.13;12.63;;;11.60;99.90;;;12.19;92.33;-20141.75;5031782;28;20229;-62
2022/04/14 00:39:26;;;;;;;14.97;11.93;;;11.50;99.90;;;12.15;93.64;-20140.56;5031476;28;20306;-62
2022/04/14 00:41:54;;;;;;;15.37;12.33;;;11.50;99.90;;;12.10;94.62;-20138.84;5031724;28;20301;-63
2022/04/14 00:44:22;;;;;;;17.10;13.20;;;11.40;99.90;;;12.04;95.74;-20136.63;5031880;28;20663;-63
2022/04/14 00:46:50;;;;;;;15.53;12.17;;;11.30;99.90;;;12.06;96.30;-20137.31;5031397;28;20317;-62
2022/04/14 00:49:20;;;;;;;14.97;12.43;;;11.30;99.90;;;12.08;96.95;-20138.19;5031527;28;20669;-63
2022/04/14 00:51:48;;;;;;;14.67;13.00;;;11.30;99.90;;;11.98;97.12;-20134.75;5031247;28;20658;-61
2022/04/14 00:54:16;;;;;;;16.93;13.13;;;11.20;99.90;;;11.90;96.81;-20131.84;5031288;28;20305;-63
2022/04/14 00:56:44;;;;;;;16.83;13.33;;;11.20;99.90;;;11.90;97.22;-20132.03;5031375;28;20230;-62
2022/04/14 00:59:12;;;;;;;16.57;13.27;;;11.20;99.90;;;11.83;97.89;-20129.47;5032194;28;20560;-62
2022/04/14 01:01:41;;;;;;;16.63;13.53;;;11.10;99.90;;;11.81;98.61;-20128.94;5031167;28;20228;-62
2022/04/14 01:04:12;;;;;;;15.93;12.63;;;11.10;99.90;;;11.81;99.64;-20128.94;5031522;28;20545;-62
2022/04/14 01:06:42;;;;;;;14.27;12.30;;;11.10;99.90;;;11.78;99.85;-20127.94;5031215;28;20252;-63
2022/04/14 01:09:19;;;;;;;14.67;12.27;;;11.00;99.90;;;11.70;100.00;-20125.19;5031137;28;20230;-63
2022/04/14 01:11:49;;;;;;;16.03;12.60;;;11.00;99.90;;;11.67;99.87;-20124.16;5020598;28;20509;-61
2022/04/14 01:14:26;;;;;;;15.03;12.13;;;10.90;99.90;;;11.71;99.42;-20125.53;5011693;28;20214;-62
2022/04/14 01:16:54;;;;;;;14.90;12.40;;;10.90;99.90;;;11.75;99.74;-20126.72;5011265;28;20314;-63
2022/04/14 01:19:23;;;;;;;16.53;13.33;;;10.90;99.90;;;11.74;99.46;-20126.38;5011392;28;20233;-61
2022/04/14 01:22:03;;;;;;;16.30;13.40;;;10.90;99.90;;;11.62;100.00;-20122.28;5011064;28;20260;-62
2022/04/14 01:24:34;;;;;;;14.40;12.83;;;10.90;99.90;;;11.59;100.00;-20121.44;5010941;28;20310;-62
2022/04/14 01:27:02;;;;;;;15.33;12.47;;;10.90;99.90;;;11.63;100.00;-20122.63;5010942;28;20325;-62
2022/04/14 01:29:30;;;;;;;18.13;12.90;;;10.80;99.90;;;11.58;100.00;-20120.91;5011657;28;20207;-62
2022/04/14 01:32:01;;;;;;;13.70;12.13;;;10.80;99.90;;;11.60;100.00;-20121.78;5021774;28;20325;-62
2022/04/14 01:34:30;;;;;;;18.70;12.60;;;10.80;99.90;;;11.67;99.41;-20124.00;5030540;28;20591;-61
2022/04/14 01:36:58;;;;;;;15.87;13.03;;;10.80;99.90;;;11.76;98.44;-20127.06;5030648;28;20222;-62
2022/04/14 01:39:28;;;;;;;15.10;12.30;;;10.80;99.90;;;11.79;98.11;-20128.09;5030485;28;20244;-62
2022/04/14 01:41:57;;;;;;;17.40;15.50;;;10.90;99.90;;;11.74;98.18;-20126.56;5030607;28;20297;-62
2022/04/14 01:44:25;;;;;;;20.17;17.00;;;10.90;99.90;;;11.74;98.22;-20126.56;5030764;28;20202;-62
2022/04/14 01:46:53;;;;;;;16.13;14.43;;;10.90;99.90;;;11.74;98.45;-20126.38;5030217;28;20232;-62
2022/04/14 01:49:21;;;;;;;17.00;13.17;;;10.90;99.90;;;11.65;98.82;-20123.50;5030530;28;20327;-62
2022/04/14 01:51:49;;;;;;;16.57;12.63;;;10.90;99.90;;;11.53;99.32;-20119.38;5030138;28;20325;-62
2022/04/14 01:54:17;;;;;;;15.80;12.50;;;10.80;99.90;;;11.47;99.67;-20117.34;5030313;28;20308;-61
2022/04/14 01:56:46;;;;;;;14.17;12.50;;;10.80;99.90;;;11.48;99.77;-20117.69;5030188;28;20554;-62
2022/04/14 01:59:15;;;;;;;15.83;12.97;;;10.70;99.90;;;11.43;100.00;-20115.97;5030703;28;20297;-61
2022/04/14 02:01:43;;;;;;;15.47;12.90;;;10.70;99.90;;;11.40;100.00;-20114.94;5030048;28;20725;-63
2022/04/14 02:04:11;;;;;;;16.03;13.17;;;10.60;99.90;;;11.36;100.00;-20113.41;5029956;28;20714;-62
2022/04/14 02:06:39;;;;;;;17.40;14.20;;;10.60;99.90;;;11.49;100.00;-20117.84;5030166;28;20229;-63
2022/04/14 02:09:07;;;;;;;15.67;13.17;;;10.70;99.90;;;11.39;100.00;-20114.59;5029345;28;20629;-62
2022/04/14 02:11:35;;;;;;;17.67;13.20;;;10.60;99.90;;;11.29;100.00;-20111.19;5021715;28;20230;-62
2022/04/14 02:14:03;;;;;;;18.43;13.27;;;10.60;99.90;;;11.32;100.00;-20112.22;5010039;28;20640;-62
2022/04/14 02:16:32;;;;;;;15.53;13.67;;;10.50;99.90;;;11.24;100.00;-20109.47;5010165;28;20261;-64
2022/04/14 02:19:00;;;;;;;16.53;13.27;;;10.50;99.90;;;11.26;100.00;-20110.00;5010149;28;20277;-63
2022/04/14 02:21:28;;;;;;;18.33;13.53;;;10.50;99.90;;;11.21;100.00;-20108.47;5010240;28;20313;-61
2022/04/14 02:23:56;;;;;;;14.53;12.53;;;10.40;99.90;;;11.10;100.00;-20104.69;5010010;28;20205;-61
2022/04/14 02:26:24;;;;;;;17.40;14.30;;;10.40;99.90;;;11.00;100.00;-20101.28;5010512;28;20202;-63
2022/04/14 02:28:54;;;;;;;17.20;15.40;;;10.30;99.90;;;10.87;100.00;-20097.00;5009638;28;20531;-63
2022/04/14 02:31:22;;;;;;;19.30;17.10;;;10.20;99.90;;;10.76;100.00;-20093.25;5016206;28;20344;-62
2022/04/14 02:33:51;;;;;;;21.00;18.73;;;10.20;99.90;;;10.78;100.00;-20093.94;5029692;28;20242;-63
2022/04/14 02:36:19;;;;;;;24.63;22.17;;;10.10;99.90;;;10.82;100.00;-20095.13;5030083;28;20230;-64
2022/04/14 02:38:47;;;;;;;23.87;20.77;;;10.10;99.90;;;10.98;100.00;-20100.59;5029422;28;20206;-61
2022/04/14 02:41:15;;;;;;;23.27;20.97;;;10.10;99.90;;;11.07;100.00;-20103.84;5030291;28;20209;-61
2022/04/14 02:43:43;;;;;;;21.17;17.40;;;10.20;99.90;;;11.62;100.00;-20122.47;5029752;28;20312;-62
2022/04/14 02:46:11;;;;;;;20.23;15.97;;;10.50;99.90;;;11.59;100.00;-20121.44;5029411;28;20225;-62
2022/04/14 02:48:39;;;;;;;23.93;18.10;;;10.60;99.90;;;11.73;100.00;-20126.22;5029405;28;20230;-62
2022/04/14 02:51:09;;;;;;;21.27;16.83;;;10.70;99.90;;;11.69;100.00;-20124.69;5029441;28;20236;-62
2022/04/14 02:53:37;;;;;;;22.43;17.47;;;10.80;99.90;;;11.91;100.00;-20132.38;5029750;28;20296;-63
2022/04/14 02:56:06;;;;;;;20.47;18.20;;;10.90;99.90;;;11.99;100.00;-20134.94;5029235;28;20304;-62
2022/04/14 02:58:34;;;;;;;23.17;17.83;;;11.10;99.90;;;11.76;100.00;-20127.25;5029870;28;20719;-62
2022/04/14 03:01:02;;;;;;;20.80;17.73;;;11.10;99.90;;;11.96;100.00;-20134.06;5029273;28;20236;-62
2022/04/14 03:03:30;;;;;;;22.43;18.33;;;11.10;99.90;;;12.01;100.00;-20135.78;5029027;28;20863;-64
2022/04/14 03:05:58;;;;;;;21.50;17.73;;;11.10;99.90;;;12.09;100.00;-20138.50;5029016;28;20241;-62
2022/04/14 03:08:27;;;;;;;25.03;18.93;;;11.20;99.90;;;11.97;100.00;-20134.41;5029359;28;20226;-63
2022/04/14 03:10:55;;;;;;;22.77;18.20;;;11.10;99.90;;;11.78;100.00;-20127.75;5028546;28;20309;-62
2022/04/14 03:13:23;;;;;;;27.73;19.00;;;11.00;99.90;;;11.59;100.00;-20121.25;5029235;28;20313;-62
2022/04/14 03:15:51;;;;;;;20.90;17.83;;;10.90;99.90;;;11.54;100.00;-20119.72;5029240;28;20761;-62
2022/04/14 03:18:19;;;;;;;21.83;18.00;;;10.90;99.90;;;11.52;100.00;-20118.88;5029319;28;20261;-62
2022/04/14 03:20:47;;;;;;;19.67;17.57;;;10.80;99.90;;;11.36;100.00;-20113.59;5030981;28;20220;-62
2022/04/14 03:23:16;;;;;;;24.63;18.80;;;10.70;99.90;;;11.29;100.00;-20111.19;5033812;28;20205;-63
2022/04/14 03:25:46;;;;;;;24.97;18.87;;;10.60;99.90;;;11.38;100.00;-20114.25;5033015;28;20372;-62
2022/04/14 03:28:14;;;;;;;22.40;18.67;;;10.60;99.90;;;11.31;100.00;-20111.69;5033133;28;20279;-62
2022/04/14 03:30:42;;;;;;;22.37;17.90;;;10.50;99.90;;;11.48;100.00;-20117.69;5033206;28;20317;-62
2022/04/14 03:33:10;;;;;;;23.30;17.73;;;10.60;99.90;;;11.37;100.00;-20113.91;5033206;28;20312;-63
2022/04/14 03:35:38;;;;;;;23.83;18.07;;;10.60;99.90;;;11.30;100.00;-20111.38;5033829;28;20206;-62
2022/04/14 03:38:06;;;;;;;22.53;18.03;;;10.60;99.90;;;11.53;100.00;-20119.22;5033470;28;20686;-63
2022/04/14 03:40:56;;;;;;;21.50;18.20;;;10.50;99.90;;;11.52;100.00;-20119.03;5032917;28;20241;-62
2022/04/14 03:43:24;;;;;;;21.17;17.40;;;10.60;99.90;;;11.58;100.00;-20121.09;5032925;28;20336;-63
2022/04/14 03:45:52;;;;;;;19.33;16.87;;;10.60;99.90;;;11.40;100.00;-20114.94;5032366;28;20735;-62
2022/04/14 03:48:20;;;;;;;22.47;17.47;;;10.60;99.90;;;11.49;100.00;-20117.84;5032904;28;20304;-62
2022/04/14 03:50:47;;;;;;;19.10;17.10;;;10.60;99.90;;;11.24;100.00;-20109.31;5032815;28;20208;-63
2022/04/14 03:53:18;;;;;;;19.97;16.10;;;10.50;99.90;;;11.06;100.00;-20103.31;5033509;28;20316;-61
2022/04/14 03:55:47;;;;;;;23.60;17.60;;;10.40;99.90;;;11.00;100.00;-20101.28;5032328;28;20228;-63
2022/04/14 03:58:16;;;;;;;21.37;16.73;;;10.30;99.90;;;11.17;100.00;-20107.09;5032825;28;20234;-61
2022/04/14 04:00:45;;;;;;;18.80;16.37;;;10.30;99.90;;;11.05;100.00;-20103.00;5032217;28;20312;-63
2022/04/14 04:03:13;;;;;;;17.53;15.00;;;10.30;99.90;;;11.21;100.00;-20108.47;5032618;28;20372;-61
2022/04/14 04:05:42;;;;;;;19.87;15.97;;;10.30;99.90;;;11.31;100.00;-20111.69;5032749;28;20205;-62
2022/04/14 04:08:10;;;;;;;17.57;15.57;;;10.30;99.90;;;11.18;100.00;-20107.44;5032797;28;20688;-62
2022/04/14 04:10:38;;;;;;;16.60;14.80;;;10.40;99.90;;;11.23;100.00;-20108.97;5032126;28;20710;-63
2022/04/14 04:13:06;;;;;;;18.30;14.80;;;10.30;99.90;;;11.32;100.00;-20112.22;5031655;28;20317;-63
2022/04/14 04:15:36;;;;;;;15.87;14.13;;;10.40;99.90;;;11.08;100.00;-20104.19;5031096;28;20276;-63
2022/04/14 04:18:06;;;;;;;19.97;14.83;;;10.30;99.90;;;11.09;100.00;-20104.53;5031165;28;20256;-62
2022/04/14 04:20:35;;;;;;;15.77;14.10;;;10.30;99.90;;;11.26;100.00;-20110.16;5031470;28;20206;-63
2022/04/14 04:23:05;;;;;;;15.93;14.20;;;10.40;99.90;;;11.45;100.00;-20116.66;5030945;28;20304;-63
2022/04/14 04:25:33;;;;;;;15.83;14.00;;;10.40;99.90;;;11.38;100.00;-20114.09;5030536;28;20623;-62
2022/04/14 04:28:01;;;;;;;19.93;13.63;;;10.50;99.90;;;11.35;100.00;-20113.22;5030847;28;20784;-63
2022/04/14 04:30:29;;;;;;;18.20;15.03;;;10.50;99.90;;;11.31;100.00;-20111.88;5030867;28;20237;-63
2022/04/14 04:32:59;;;;;;;18.63;14.43;;;10.50;99.90;;;11.21;100.00;-20108.47;5030279;28;20582;-62
2022/04/14 04:35:28;;;;;;;18.13;14.20;;;10.40;99.90;;;11.34;100.00;-20112.72;5031114;28;20641;-64
2022/04/14 04:37:56;;;;;;;16.33;12.93;;;10.40;99.90;;;11.60;100.00;-20121.59;5030613;28;20240;-64
2022/04/14 04:40:23;;;;;;;18.40;13.70;;;10.60;99.90;;;11.52;100.00;-20119.03;5030388;28;20313;-63
2022/04/14 04:42:51;;;;;;;15.40;13.70;;;10.60;99.90;;;11.69;100.00;-20124.84;5030677;28;20663;-61
2022/04/14 04:45:20;;;;;;;17.40;14.10;;;10.70;99.90;;;11.66;100.00;-20123.84;5030103;28;20312;-62
2022/04/14 04:47:48;;;;;;;15.90;12.93;;;10.70;99.90;;;11.71;100.00;-20125.53;5030769;28;20248;-62
2022/04/14 04:50:17;;;;;;;15.60;13.40;;;10.70;99.90;;;11.76;100.00;-20127.25;5031057;28;20202;-62
2022/04/14 04:52:45;;;;;;;15.90;13.20;;;10.70;99.90;;;11.92;100.00;-20132.53;5030634;28;20324;-61
2022/04/14 04:55:13;;;;;;;15.93;12.90;;;10.80;99.90;;;12.05;100.00;-20136.97;5029987;28;20780;-62
2022/04/14 04:57:41;;;;;;;14.70;13.10;;;11.00;99.90;;;12.31;100.00;-20145.84;5030454;28;20226;-62
2022/04/14 05:00:11;;;;;;;14.30;12.23;;;11.10;99.90;;;12.47;100.00;-20151.16;5030401;28;20240;-62
2022/04/14 05:02:39;;;;;;;13.30;11.90;;;11.20;99.90;;;12.64;100.00;-20156.94;5030469;28;20237;-62
2022/04/14 05:05:09;;;;;;;16.03;12.17;;;11.40;99.90;;;12.73;100.00;-20160.03;5030956;28;20292;-65
2022/04/14 05:07:38;;;;;;;14.83;12.23;;;11.60;99.90;;;12.81;100.00;-20162.75;5030246;28;20236;-61
2022/04/14 05:10:07;;;;;;;13.50;11.77;;;11.70;99.90;;;12.93;100.00;-20166.84;5029686;28;20308;-61
2022/04/14 05:12:35;;;;;;;14.10;11.13;;;11.80;99.90;;;12.96;100.00;-20168.06;4989347;28;1176791;-61
2022/04/14 05:15:04;;;;;;;12.90;11.37;;;11.80;99.90;;;13.02;100.00;-20170.09;5030860;28;20218;-62
2022/04/14 05:17:32;;;;;;;14.20;11.87;;;11.90;99.90;;;13.09;100.00;-20172.31;5031738;28;20199;-62
2022/04/14 05:20:00;;;;;;;13.73;11.87;;;11.90;99.90;;;13.16;100.00;-20174.88;5030861;28;20792;-62
2022/04/14 05:22:28;;;;;;;13.90;11.37;;;11.90;99.90;;;13.28;100.00;-20178.81;5026409;28;20314;-62
2022/04/14 05:24:58;;;;;;;15.83;12.03;;;12.10;99.90;;;13.27;100.00;-20178.66;5011732;28;20653;-62
2022/04/14 05:27:26;;;;;;;12.63;10.83;;;12.10;99.90;;;13.36;100.00;-20181.72;5011683;28;20253;-62
2022/04/14 05:29:54;;;;;;;13.63;11.40;;;12.10;99.90;;;13.34;100.00;-20181.03;5012043;28;20324;-63
2022/04/14 05:32:22;;;;;;;12.70;11.33;;;12.20;99.90;;;13.28;100.00;-20178.97;5026262;28;20341;-62
2022/04/14 05:34:55;;;;;;;11.67;10.47;;;12.20;99.90;;;13.36;100.00;-20181.72;5031747;28;20717;-62
2022/04/14 05:37:23;;;;;;;15.13;11.50;;;12.20;99.90;;;13.27;100.00;-20178.47;5031217;28;20609;-63
2022/04/14 05:39:51;;;;;;;12.00;10.50;;;12.20;99.90;;;13.34;100.00;-20181.03;5031221;28;20285;-62
2022/04/14 05:42:21;;;;;;;13.87;11.03;;;12.20;99.90;;;13.48;100.00;-20185.63;5016261;28;20740;-62
2022/04/14 05:44:49;;;;;;;14.03;11.10;;;12.30;99.90;;;13.43;100.00;-20184.09;5018061;28;20229;-62
2022/04/14 05:47:23;;;;;;;12.73;10.60;;;12.30;99.90;;;13.43;100.00;-20184.09;5031901;28;20730;-62
2022/04/14 05:49:52;;;;;;;13.37;10.60;;;12.30;99.90;;;13.38;100.00;-20182.41;5031083;28;20230;-62
2022/04/14 05:52:20;;;;;;;13.30;10.57;;;12.30;99.90;;;13.53;100.00;-20187.34;5030974;28;20647;-64
2022/04/14 05:54:49;;;;;;;12.13;9.80;;;12.30;99.90;;;13.48;100.00;-20185.63;5030945;28;20291;-62
2022/04/14 05:57:18;;;;;;;12.43;9.87;;;12.40;99.90;;;13.56;100.00;-20188.19;5031037;28;20309;-62
2022/04/14 05:59:47;;;;;;;12.53;10.17;;;12.40;99.90;;;13.81;100.00;-20196.72;5031226;28;20208;-63
2022/04/14 06:02:17;;;;;;;13.00;10.40;;;12.50;99.90;;;13.79;100.00;-20196.22;5031495;28;20599;-62
2022/04/14 06:04:45;;;;;;;10.87;9.70;;;12.60;99.90;;;13.92;100.00;-20200.50;5030884;28;20233;-63
2022/04/14 06:07:13;;;;;;;11.73;9.70;;;12.70;99.90;;;13.94;100.00;-20201.16;5027110;28;20670;-62
2022/04/14 06:09:41;;;;;;;11.23;9.13;;;12.70;99.90;;;14.00;100.00;-20203.22;5029332;28;20757;-62
2022/04/14 06:12:10;;;;;;;12.50;10.17;;;12.80;99.90;;;13.95;100.00;-20201.69;5030866;28;20222;-62
2022/04/14 06:14:50;;;;;;;11.33;9.47;;;12.80;99.90;;;14.02;100.00;-20204.06;5029323;28;20190;-63
2022/04/14 06:17:18;;;;;;;13.57;10.53;;;12.80;99.90;;;14.14;100.00;-20208.16;5031474;28;20206;-63
2022/04/14 06:19:46;;;;;;;10.67;8.97;;;12.90;99.90;;;14.09;100.00;-20206.47;5029184;28;20241;-63
2022/04/14 06:22:14;;;;;;;14.00;9.70;;;12.80;99.90;;;14.07;100.00;-20205.78;5032809;28;20230;-62
2022/04/14 06:24:42;;;;;;;11.93;9.63;;;12.90;99.90;;;14.11;100.00;-20207.16;5033559;28;20229;-62
2022/04/14 06:27:10;;;;;;;14.03;9.93;;;12.90;99.90;;;14.05;100.00;-20205.09;5029006;28;20717;-63
2022/04/14 06:29:38;;;;;;;10.33;9.37;;;12.90;99.90;;;14.22;100.00;-20210.72;5031260;28;20208;-63
2022/04/14 06:32:09;;;;;;;10.47;8.87;;;13.00;99.90;;;14.30;100.00;-20213.47;5019268;28;20226;-63
2022/04/14 06:34:43;;;;;;;14.60;9.83;;;13.10;99.90;;;14.16;100.00;-20208.69;5030354;28;20253;-62
2022/04/14 06:37:11;;;;;;;12.53;9.23;;;13.10;99.90;;;14.17;100.00;-20209.03;5028807;28;20304;-62
2022/04/14 06:39:39;;;;;;;12.77;9.23;;;13.10;99.90;;;14.41;100.00;-20217.22;5030301;28;20429;-64
2022/04/14 06:42:07;;;;;;;11.77;9.33;;;13.10;99.90;;;14.49;100.00;-20220.13;5030319;28;20732;-62
2022/04/14 06:44:35;;;;;;;10.13;8.87;;;13.20;99.90;;;14.43;100.00;-20217.91;5030413;28;20198;-63
2022/04/14 06:47:04;;;;;;;12.10;9.30;;;13.30;99.90;;;14.80;100.00;-20230.38;5030020;28;20264;-62
2022/04/14 06:49:33;;;;;;;10.50;8.43;;;13.40;99.90;;;14.95;100.00;-20235.66;5030264;28;20284;-62
2022/04/14 06:52:02;;;;;;;12.87;8.77;;;13.60;99.90;;;14.83;100.00;-20231.38;5029965;28;21143;-63
2022/04/14 06:54:30;;;;;;;9.80;8.70;;;13.60;99.90;;;14.97;100.00;-20236.16;5029838;28;20709;-63
2022/04/14 06:56:58;;;;;;;10.07;8.33;;;13.60;99.90;;;15.09;100.00;-20240.25;5030501;28;20206;-62
2022/04/14 06:59:27;;;;;;;11.17;8.40;;;13.80;99.90;;;15.09;100.00;-20240.44;5031146;28;20212;-63
2022/04/14 07:01:55;;;;;;;10.40;8.87;;;13.80;99.90;;;15.14;100.00;-20241.97;5029826;28;20721;-61
2022/04/14 07:04:23;;;;;;;8.57;7.43;;;13.90;99.90;;;15.09;100.00;-20240.25;5030101;28;20230;-62
2022/04/14 07:06:52;;;;;;;9.47;7.63;;;13.90;99.90;;;15.28;100.00;-20246.75;5030114;28;20237;-63
2022/04/14 07:09:20;;;;;;;13.30;7.87;;;14.00;99.90;;;15.09;100.00;-20240.25;5030023;28;20240;-63
2022/04/14 07:11:48;;;;;;;9.57;8.23;;;13.90;99.90;;;15.00;100.00;-20237.19;5028612;28;20199;-61
2022/04/14 07:14:18;;;;;;;10.17;8.00;;;13.80;99.90;;;15.04;100.00;-20238.72;5030017;28;20240;-61
2022/04/14 07:16:46;;;;;;;8.90;7.67;;;13.80;99.90;;;15.05;100.00;-20238.91;5029708;28;20230;-62
2022/04/14 07:19:14;;;;;;;8.53;7.43;;;13.80;99.90;;;15.10;100.00;-20240.59;5029439;28;20240;-63
2022/04/14 07:21:42;;;;;;;8.63;7.40;;;13.90;99.90;;;15.20;100.00;-20244.19;5029835;28;20244;-61
2022/04/14 07:24:12;;;;;;;8.90;7.63;;;13.90;99.90;;;15.24;100.00;-20245.53;5029211;28;20222;-60
2022/04/14 07:26:40;;;;;;;10.97;7.67;;;13.90;99.90;;;15.13;100.00;-20241.63;5030084;28;20202;-61
2022/04/14 07:29:07;;;;;;;8.73;7.70;;;13.90;99.90;;;15.29;100.00;-20247.25;5030402;28;20209;-63
2022/04/14 07:31:36;;;;;;;9.27;7.97;;;14.00;99.90;;;15.64;98.34;-20259.19;5018166;28;20230;-66
2022/04/14 07:34:05;;;;;;;10.30;7.80;;;14.20;99.90;;;15.74;97.24;-20262.44;5028306;28;20275;-68
2022/04/14 07:36:33;;;;;;;8.27;7.00;;;14.20;99.90;;;15.72;97.04;-20261.75;5029135;28;20230;-62
2022/04/14 07:39:04;;;;;;;9.77;7.87;;;14.30;99.90;;;15.90;96.67;-20267.75;5011404;28;20226;-63
2022/04/14 07:41:33;;;;;;;8.80;6.97;;;14.50;99.90;;;15.96;96.69;-20269.97;5020352;28;20253;-62
2022/04/14 07:44:01;;;;;;;9.80;7.15;;;14.60;99.90;;;16.02;96.14;-20271.81;5010015;28;20225;-62
2022/04/14 07:46:29;;;;;;;8.90;7.40;;;14.70;99.90;;;16.37;92.79;-20283.94;5010014;28;20253;-62
2022/04/14 07:48:57;;;;;;;8.23;7.43;;;14.80;99.90;;;16.25;94.02;-20279.69;5019999;28;20332;-65
2022/04/14 07:51:25;;;;;;;9.77;7.30;;;15.00;99.90;;;16.54;91.67;-20289.59;5029427;28;20237;-64
2022/04/14 07:53:53;;;;;;;8.63;7.35;;;15.10;99.90;;;16.48;91.43;-20287.53;5030149;28;20232;-61
2022/04/14 07:56:22;;;;;;;7.85;6.68;;;15.10;99.90;;;16.53;90.92;-20289.22;5028014;28;20618;-61
2022/04/14 07:58:52;;;;;;;9.45;7.30;;;15.20;99.90;;;16.30;92.14;-20281.56;5009989;28;20249;-61
2022/04/14 08:01:20;;;;;;;8.47;6.80;;;15.20;99.90;;;16.37;92.08;-20283.94;5015630;28;20309;-63
2022/04/14 08:03:48;;;;;;;10.32;7.45;;;15.20;99.90;;;16.51;91.28;-20288.72;5029774;28;20237;-63
2022/04/14 08:06:17;;;;;;;10.45;6.75;;;15.20;99.90;;;16.58;90.55;-20291.13;5030462;28;20208;-63
2022/04/14 08:08:45;;;;;;;9.98;6.55;;;15.30;99.90;;;16.92;89.54;-20302.72;5033668;28;20206;-61
2022/04/14 08:11:13;;;;;;;7.13;6.25;;;15.40;99.90;;;16.96;88.65;-20304.06;5033407;28;20317;-61
2022/04/14 08:13:41;;;;;;;8.70;6.80;;;15.60;99.90;;;17.21;87.39;-20312.25;5029643;28;20306;-62
2022/04/14 08:16:11;;;;;;;7.97;6.32;;;15.70;99.90;;;17.46;85.44;-20320.78;5013574;28;20226;-61
2022/04/14 08:18:41;;;;;;;7.25;6.53;;;15.90;99.90;;;17.59;84.49;-20325.22;5013441;28;20603;-60
2022/04/14 08:21:09;;;;;;;6.82;6.13;;;16.00;99.90;;;17.67;83.71;-20328.13;5014417;28;20217;-71
2022/04/14 08:23:39;;;;;;;7.57;6.28;;;16.10;99.90;;;18.10;81.05;-20342.78;5013834;28;20662;-71
2022/04/14 08:26:12;;;;;;;7.35;6.47;;;16.40;99.90;;;17.93;81.81;-20336.81;5013232;28;20313;-71
2022/04/14 08:28:45;;;;;;;7.22;6.03;;;16.40;99.90;;;18.24;79.80;-20347.41;5013346;28;20249;-63
2022/04/14 08:31:17;;;;;;;6.60;5.97;;;16.60;99.90;;;18.39;78.82;-20352.34;5017643;28;20230;-62
2022/04/14 08:33:45;;;;;;;9.52;5.80;;;16.80;99.90;;;18.57;77.49;-20358.47;5032705;28;20247;-64
2022/04/14 08:36:15;;;;;;;6.10;5.43;;;17.00;99.90;;;18.59;77.06;-20359.16;5032621;28;20206;-62
2022/04/14 08:38:45;;;;;;;6.18;5.10;;;17.00;99.90;;;18.67;75.83;-20361.91;5032779;28;20701;-63
2022/04/14 08:41:17;;;;;;;7.95;5.10;;;17.10;99.90;;;18.75;75.67;-20364.63;5031961;28;20226;-64
2022/04/14 08:43:52;;;;;;;8.40;5.43;;;17.20;99.90;;;19.09;76.00;-20376.22;5032502;28;20656;-62
2022/04/14 08:46:24;;;;;;;6.88;5.97;;;17.40;99.90;;;19.19;75.27;-20379.63;5032294;28;20225;-65
2022/04/14 08:48:56;;;;;;;6.22;5.63;;;17.50;99.90;;;19.39;73.52;-20386.44;5032015;28;20226;-65
2022/04/14 08:51:28;;;;;;;5.65;5.10;;;17.60;99.90;;;19.46;73.95;-20388.84;5032288;28;20197;-64
2022/04/14 08:53:58;;;;;;;7.32;5.60;;;17.70;99.90;;;19.62;73.90;-20394.28;5032623;28;20191;-65
2022/04/14 08:56:26;;;;;;;6.22;5.30;;;17.80;99.90;;;19.79;72.29;-20399.91;5031809;28;20225;-62
2022/04/14 08:58:56;;;;;;;5.90;5.10;;;17.90;99.90;;;19.91;71.35;-20404.00;5031896;28;20229;-63
2022/04/14 09:01:28;;;;;;;4.90;4.40;;;18.00;99.90;;;19.97;70.75;-20406.22;5031724;28;20232;-61
2022/04/14 09:03:57;;;;;;;5.65;4.93;;;18.00;99.90;;;19.78;71.04;-20399.75;5032192;28;20225;-61
2022/04/14 09:06:29;;;;;;;5.50;4.95;;;18.10;99.90;;;20.03;70.73;-20408.25;5031743;28;20209;-66
2022/04/14 09:08:59;;;;;;;5.68;4.60;;;18.10;99.90;;;19.92;70.88;-20404.50;5032424;28;20178;-65
2022/04/14 09:11:28;;;;;;;6.05;4.30;;;18.30;99.90;;;19.88;71.59;-20402.97;5031783;28;20222;-63
2022/04/14 09:13:59;;;;;;;5.88;4.53;;;18.30;99.90;;;19.81;70.71;-20400.75;5031798;28;20253;-61
2022/04/14 09:16:30;;;;;;;4.97;4.28;;;18.20;99.90;;;19.86;71.16;-20402.47;5031674;28;20731;-60
2022/04/14 09:19:01;;;;;;;4.70;4.22;;;18.20;99.90;;;20.07;70.79;-20409.44;5030662;28;20221;-62
2022/04/14 09:21:29;;;;;;;4.75;4.30;;;18.30;99.90;;;19.89;70.73;-20403.31;5031862;28;20283;-61
2022/04/14 09:23:57;;;;;;;4.30;3.95;;;18.20;99.90;;;19.74;nan;-20398.38;5031585;28;20692;-61
2022/04/14 09:26:25;;;;;;;4.13;3.83;;;18.10;99.90;;;19.90;70.87;-20403.84;5031298;28;20287;-59
2022/04/14 09:29:07;;;;;;;3.47;3.17;;;18.10;99.90;;;20.08;69.52;-20409.78;5031709;28;20229;-59
2022/04/14 09:31:51;;;;;;;3.40;3.10;;;18.30;99.90;;;20.06;69.34;-20409.09;5031357;28;20699;-59
2022/04/14 09:34:48;;;;;;;4.80;3.60;;;18.30;99.90;;;20.02;69.50;-20407.75;5031439;28;20232;-59
2022/04/14 09:37:16;;;;;;;3.47;3.17;;;18.30;99.90;;;20.08;69.28;-20409.78;5031324;28;20447;-61
2022/04/14 09:39:53;;;;;;;2.92;2.63;;;18.40;99.90;;;20.04;68.62;-20408.44;5031314;28;20253;-62
2022/04/14 09:42:23;;;;;;;4.82;3.47;;;18.50;99.90;;;20.04;69.29;-20408.44;5031218;28;20220;-62
2022/04/14 09:44:51;;;;;;;2.70;2.50;;;18.50;99.90;;;19.96;69.09;-20405.88;5031452;28;20213;-62
2022/04/14 09:47:39;;;;;;;3.67;2.47;;;18.50;99.90;;;20.23;69.51;-20415.09;5031026;28;20230;-61
2022/04/14 09:50:24;;;;;;;3.25;2.20;;;18.60;99.90;;;20.45;67.63;-20422.41;5011576;28;20646;-66
2022/04/14 09:52:58;;;;;;;3.05;1.88;;;18.60;99.90;;;20.37;67.04;-20419.84;5011438;28;20252;-67
2022/04/14 09:55:27;;;;;;;2.15;1.95;;;18.70;99.90;;;20.54;66.59;-20425.47;5011006;28;20237;-63
2022/04/14 09:58:13;;;;;;;2.17;1.95;;;18.80;99.90;;;20.26;68.03;-20415.94;5011547;28;20249;-62
2022/04/14 10:00:44;;;;;;;3.55;1.45;;;18.80;99.90;;;20.45;68.67;-20422.41;5011738;28;20223;-70
2022/04/14 10:03:17;;;;;;;2.28;1.70;;;18.80;99.90;;;20.10;67.85;-20410.66;5030869;28;20282;-73
2022/04/14 10:05:47;;;;;;;1.50;1.40;;;18.70;99.90;;;20.42;68.04;-20421.38;5030909;28;20708;-62
2022/04/14 10:08:17;;;;;;;3.97;1.60;;;18.70;99.90;;;20.47;66.55;-20423.09;5030724;28;20226;-68
2022/04/14 10:10:47;;;;;;;2.65;2.10;;;18.70;99.90;;;20.50;67.44;-20424.09;5029826;28;20781;-68